sensor_id;sensor_type;location;lat;lon;timestamp;P1;durP1;ratioP1;P2;durP2;ratioP2
54923;SDS011;40825;52.270;20.984;2023-03-01T00:02:00;50.80;;;23.00;;
54923;SDS011;40825;52.270;20.984;2023-03-01T00:04:25;46.00;;;22.20;;
54923;SDS011;40825;52.270;20.984;2023-03-01T00:06:52;52.60;;;22.50;;
54923;SDS011;40825;52.270;20.984;2023-03-01T00:09:17;52.00;;;22.60;;
54923;SDS011;40825;52.270;20.984;2023-03-01T00:11:43;50.60;;;21.30;;
54923;SDS011;40825;52.270;20.984;2023-03-01T00:14:08;51.30;;;21.70;;
54923;SDS011;40825;52.270;20.984;2023-03-01T00:16:38;55.00;;;24.20;;
54923;SDS011;40825;52.270;20.984;2023-03-01T00:19:05;47.60;;;22.30;;
54923;SDS011;40825;52.270;20.984;2023-03-01T00:21:32;51.90;;;22.60;;
54923;SDS011;40825;52.270;20.984;2023-03-01T00:24:00;55.00;;;23.00;;
54923;SDS011;40825;52.270;20.984;2023-03-01T00:26:27;53.20;;;23.30;;
54923;SDS011;40825;52.270;20.984;2023-03-01T00:28:53;48.80;;;22.80;;
54923;SDS011;40825;52.270;20.984;2023-03-01T00:31:21;49.60;;;21.90;;
54923;SDS011;40825;52.270;20.984;2023-03-01T00:33:51;51.60;;;23.30;;
54923;SDS011;40825;52.270;20.984;2023-03-01T00:36:18;52.40;;;22.80;;
54923;SDS011;40825;52.270;20.984;2023-03-01T00:38:45;51.70;;;22.00;;
54923;SDS011;40825;52.270;20.984;2023-03-01T00:41:13;50.70;;;21.20;;
54923;SDS011;40825;52.270;20.984;2023-03-01T00:43:40;50.40;;;20.40;;
54923;SDS011;40825;52.270;20.984;2023-03-01T00:46:08;55.00;;;24.40;;
54923;SDS011;40825;52.270;20.984;2023-03-01T00:51:15;52.70;;;23.40;;
54923;SDS011;40825;52.270;20.984;2023-03-01T00:53:43;59.80;;;23.70;;
54923;SDS011;40825;52.270;20.984;2023-03-01T00:56:10;55.30;;;24.40;;
54923;SDS011;40825;52.270;20.984;2023-03-01T00:58:38;54.50;;;22.20;;
54923;SDS011;40825;52.270;20.984;2023-03-01T01:01:11;55.10;;;23.90;;
54923;SDS011;40825;52.270;20.984;2023-03-01T01:03:46;54.60;;;25.40;;
54923;SDS011;40825;52.270;20.984;2023-03-01T01:06:19;54.60;;;23.30;;
54923;SDS011;40825;52.270;20.984;2023-03-01T01:09:05;51.50;;;22.30;;
54923;SDS011;40825;52.270;20.984;2023-03-01T01:11:32;53.50;;;25.20;;
54923;SDS011;40825;52.270;20.984;2023-03-01T01:13:58;53.50;;;22.30;;
54923;SDS011;40825;52.270;20.984;2023-03-01T01:16:25;49.50;;;21.50;;
54923;SDS011;40825;52.270;20.984;2023-03-01T01:18:52;52.40;;;22.10;;
54923;SDS011;40825;52.270;20.984;2023-03-01T01:21:20;53.00;;;21.50;;
54923;SDS011;40825;52.270;20.984;2023-03-01T01:23:48;61.90;;;22.60;;
54923;SDS011;40825;52.270;20.984;2023-03-01T01:26:15;53.80;;;22.50;;
54923;SDS011;40825;52.270;20.984;2023-03-01T01:28:42;50.70;;;24.20;;
54923;SDS011;40825;52.270;20.984;2023-03-01T01:31:08;49.30;;;20.80;;
54923;SDS011;40825;52.270;20.984;2023-03-01T01:33:34;51.10;;;20.60;;
54923;SDS011;40825;52.270;20.984;2023-03-01T01:35:59;56.50;;;21.30;;
54923;SDS011;40825;52.270;20.984;2023-03-01T01:38:25;51.90;;;21.30;;
54923;SDS011;40825;52.270;20.984;2023-03-01T01:40:51;49.90;;;19.70;;
54923;SDS011;40825;52.270;20.984;2023-03-01T01:45:52;42.80;;;20.20;;
54923;SDS011;40825;52.270;20.984;2023-03-01T01:48:22;53.80;;;22.50;;
54923;SDS011;40825;52.270;20.984;2023-03-01T01:50:55;51.80;;;23.00;;
54923;SDS011;40825;52.270;20.984;2023-03-01T01:53:24;46.20;;;22.00;;
54923;SDS011;40825;52.270;20.984;2023-03-01T01:55:52;52.20;;;22.60;;
54923;SDS011;40825;52.270;20.984;2023-03-01T01:58:22;54.50;;;21.40;;
54923;SDS011;40825;52.270;20.984;2023-03-01T02:00:49;51.40;;;21.90;;
54923;SDS011;40825;52.270;20.984;2023-03-01T02:03:18;49.60;;;21.20;;
54923;SDS011;40825;52.270;20.984;2023-03-01T02:08:15;51.10;;;22.00;;
54923;SDS011;40825;52.270;20.984;2023-03-01T02:10:43;56.50;;;21.90;;
54923;SDS011;40825;52.270;20.984;2023-03-01T02:13:11;47.90;;;20.60;;
54923;SDS011;40825;52.270;20.984;2023-03-01T02:15:38;45.80;;;21.00;;
54923;SDS011;40825;52.270;20.984;2023-03-01T02:18:06;55.90;;;21.90;;
54923;SDS011;40825;52.270;20.984;2023-03-01T02:20:34;50.90;;;21.50;;
54923;SDS011;40825;52.270;20.984;2023-03-01T02:23:10;49.80;;;22.50;;
54923;SDS011;40825;52.270;20.984;2023-03-01T02:26:19;46.40;;;20.60;;
54923;SDS011;40825;52.270;20.984;2023-03-01T02:28:38;55.30;;;24.30;;
54923;SDS011;40825;52.270;20.984;2023-03-01T02:31:07;52.00;;;22.70;;
54923;SDS011;40825;52.270;20.984;2023-03-01T02:33:53;58.30;;;25.00;;
54923;SDS011;40825;52.270;20.984;2023-03-01T02:36:20;57.40;;;24.30;;
54923;SDS011;40825;52.270;20.984;2023-03-01T02:38:51;54.60;;;22.10;;
54923;SDS011;40825;52.270;20.984;2023-03-01T02:41:21;55.60;;;22.40;;
54923;SDS011;40825;52.270;20.984;2023-03-01T02:43:49;49.30;;;22.60;;
54923;SDS011;40825;52.270;20.984;2023-03-01T02:46:16;44.50;;;18.90;;
54923;SDS011;40825;52.270;20.984;2023-03-01T02:48:49;49.10;;;21.90;;
54923;SDS011;40825;52.270;20.984;2023-03-01T02:51:25;50.90;;;21.60;;
54923;SDS011;40825;52.270;20.984;2023-03-01T02:56:37;52.00;;;20.70;;
54923;SDS011;40825;52.270;20.984;2023-03-01T02:59:02;49.10;;;20.30;;
54923;SDS011;40825;52.270;20.984;2023-03-01T03:01:28;50.10;;;19.50;;
54923;SDS011;40825;52.270;20.984;2023-03-01T03:04:09;51.80;;;23.20;;
54923;SDS011;40825;52.270;20.984;2023-03-01T03:06:42;60.30;;;24.60;;
54923;SDS011;40825;52.270;20.984;2023-03-01T03:09:09;48.90;;;22.40;;
54923;SDS011;40825;52.270;20.984;2023-03-01T03:11:35;55.70;;;24.30;;
54923;SDS011;40825;52.270;20.984;2023-03-01T03:14:02;57.60;;;22.30;;
54923;SDS011;40825;52.270;20.984;2023-03-01T03:16:28;51.00;;;23.50;;
54923;SDS011;40825;52.270;20.984;2023-03-01T03:18:55;51.10;;;23.40;;
54923;SDS011;40825;52.270;20.984;2023-03-01T03:21:30;51.00;;;21.70;;
54923;SDS011;40825;52.270;20.984;2023-03-01T03:23:57;50.70;;;22.90;;
54923;SDS011;40825;52.270;20.984;2023-03-01T03:26:22;57.40;;;25.70;;
54923;SDS011;40825;52.270;20.984;2023-03-01T03:28:49;55.30;;;24.80;;
54923;SDS011;40825;52.270;20.984;2023-03-01T03:31:14;54.90;;;24.30;;
54923;SDS011;40825;52.270;20.984;2023-03-01T03:33:40;47.00;;;21.10;;
54923;SDS011;40825;52.270;20.984;2023-03-01T03:36:05;58.20;;;24.30;;
54923;SDS011;40825;52.270;20.984;2023-03-01T03:38:31;54.40;;;24.40;;
54923;SDS011;40825;52.270;20.984;2023-03-01T03:43:30;53.10;;;22.80;;
54923;SDS011;40825;52.270;20.984;2023-03-01T03:45:58;51.00;;;23.10;;
54923;SDS011;40825;52.270;20.984;2023-03-01T03:48:24;44.70;;;18.70;;
54923;SDS011;40825;52.270;20.984;2023-03-01T03:50:54;51.40;;;22.30;;
54923;SDS011;40825;52.270;20.984;2023-03-01T03:53:21;52.10;;;20.30;;
54923;SDS011;40825;52.270;20.984;2023-03-01T03:55:49;50.20;;;22.00;;
54923;SDS011;40825;52.270;20.984;2023-03-01T03:58:15;51.10;;;20.40;;
54923;SDS011;40825;52.270;20.984;2023-03-01T04:00:44;48.50;;;21.00;;
54923;SDS011;40825;52.270;20.984;2023-03-01T04:03:12;52.50;;;21.00;;
54923;SDS011;40825;52.270;20.984;2023-03-01T04:05:39;47.40;;;21.30;;
54923;SDS011;40825;52.270;20.984;2023-03-01T04:08:06;45.30;;;21.10;;
54923;SDS011;40825;52.270;20.984;2023-03-01T04:10:36;55.00;;;20.70;;
54923;SDS011;40825;52.270;20.984;2023-03-01T04:15:30;51.20;;;21.70;;
54923;SDS011;40825;52.270;20.984;2023-03-01T04:17:58;46.80;;;20.20;;
54923;SDS011;40825;52.270;20.984;2023-03-01T04:20:25;56.10;;;22.20;;
54923;SDS011;40825;52.270;20.984;2023-03-01T04:25:53;52.80;;;23.20;;
54923;SDS011;40825;52.270;20.984;2023-03-01T04:28:24;49.50;;;21.90;;
54923;SDS011;40825;52.270;20.984;2023-03-01T04:30:51;55.40;;;24.20;;
54923;SDS011;40825;52.270;20.984;2023-03-01T04:33:18;57.40;;;27.20;;
54923;SDS011;40825;52.270;20.984;2023-03-01T04:35:45;54.30;;;22.60;;
54923;SDS011;40825;52.270;20.984;2023-03-01T04:38:14;46.20;;;21.30;;
54923;SDS011;40825;52.270;20.984;2023-03-01T04:40:42;45.30;;;22.00;;
54923;SDS011;40825;52.270;20.984;2023-03-01T04:43:09;55.20;;;22.50;;
54923;SDS011;40825;52.270;20.984;2023-03-01T04:45:35;51.40;;;21.70;;
54923;SDS011;40825;52.270;20.984;2023-03-01T04:48:02;53.60;;;23.90;;
54923;SDS011;40825;52.270;20.984;2023-03-01T04:50:28;52.20;;;22.30;;
54923;SDS011;40825;52.270;20.984;2023-03-01T04:52:54;47.40;;;22.30;;
54923;SDS011;40825;52.270;20.984;2023-03-01T04:57:52;48.50;;;22.30;;
54923;SDS011;40825;52.270;20.984;2023-03-01T05:00:19;47.60;;;20.70;;
54923;SDS011;40825;52.270;20.984;2023-03-01T05:02:46;50.70;;;22.80;;
54923;SDS011;40825;52.270;20.984;2023-03-01T05:05:14;50.40;;;22.20;;
54923;SDS011;40825;52.270;20.984;2023-03-01T05:07:40;51.40;;;22.40;;
54923;SDS011;40825;52.270;20.984;2023-03-01T05:10:06;56.50;;;24.10;;
54923;SDS011;40825;52.270;20.984;2023-03-01T05:12:32;53.30;;;21.70;;
54923;SDS011;40825;52.270;20.984;2023-03-01T05:14:57;50.40;;;22.20;;
54923;SDS011;40825;52.270;20.984;2023-03-01T05:17:23;47.30;;;21.10;;
54923;SDS011;40825;52.270;20.984;2023-03-01T05:19:49;55.80;;;25.10;;
54923;SDS011;40825;52.270;20.984;2023-03-01T05:22:15;51.20;;;22.90;;
54923;SDS011;40825;52.270;20.984;2023-03-01T05:24:40;59.30;;;22.20;;
54923;SDS011;40825;52.270;20.984;2023-03-01T05:27:06;56.60;;;23.10;;
54923;SDS011;40825;52.270;20.984;2023-03-01T05:29:32;65.80;;;25.60;;
54923;SDS011;40825;52.270;20.984;2023-03-01T05:32:02;58.70;;;26.80;;
54923;SDS011;40825;52.270;20.984;2023-03-01T05:34:29;59.00;;;25.90;;
54923;SDS011;40825;52.270;20.984;2023-03-01T05:36:56;54.80;;;24.90;;
54923;SDS011;40825;52.270;20.984;2023-03-01T05:39:23;53.90;;;23.30;;
54923;SDS011;40825;52.270;20.984;2023-03-01T05:41:54;58.20;;;24.90;;
54923;SDS011;40825;52.270;20.984;2023-03-01T05:44:22;59.70;;;24.90;;
54923;SDS011;40825;52.270;20.984;2023-03-01T05:46:48;56.50;;;24.60;;
54923;SDS011;40825;52.270;20.984;2023-03-01T05:49:14;59.20;;;24.70;;
54923;SDS011;40825;52.270;20.984;2023-03-01T05:51:40;57.80;;;24.30;;
54923;SDS011;40825;52.270;20.984;2023-03-01T05:54:07;52.10;;;24.30;;
54923;SDS011;40825;52.270;20.984;2023-03-01T05:56:34;53.50;;;24.80;;
54923;SDS011;40825;52.270;20.984;2023-03-01T05:59:01;59.70;;;26.20;;
54923;SDS011;40825;52.270;20.984;2023-03-01T06:01:27;50.80;;;22.60;;
54923;SDS011;40825;52.270;20.984;2023-03-01T06:03:53;58.50;;;25.30;;
54923;SDS011;40825;52.270;20.984;2023-03-01T06:06:18;55.60;;;24.00;;
54923;SDS011;40825;52.270;20.984;2023-03-01T06:08:44;54.30;;;25.80;;
54923;SDS011;40825;52.270;20.984;2023-03-01T06:11:09;56.70;;;25.10;;
54923;SDS011;40825;52.270;20.984;2023-03-01T06:13:35;66.50;;;27.60;;
54923;SDS011;40825;52.270;20.984;2023-03-01T06:16:03;57.30;;;24.70;;
54923;SDS011;40825;52.270;20.984;2023-03-01T06:18:32;54.70;;;23.10;;
54923;SDS011;40825;52.270;20.984;2023-03-01T06:20:57;56.30;;;26.10;;
54923;SDS011;40825;52.270;20.984;2023-03-01T06:23:23;51.90;;;21.80;;
54923;SDS011;40825;52.270;20.984;2023-03-01T06:25:49;52.70;;;22.50;;
54923;SDS011;40825;52.270;20.984;2023-03-01T06:28:15;48.80;;;21.10;;
54923;SDS011;40825;52.270;20.984;2023-03-01T06:30:41;53.40;;;23.20;;
54923;SDS011;40825;52.270;20.984;2023-03-01T06:33:07;52.20;;;24.00;;
54923;SDS011;40825;52.270;20.984;2023-03-01T06:35:33;53.00;;;22.90;;
54923;SDS011;40825;52.270;20.984;2023-03-01T06:37:59;49.70;;;21.40;;
54923;SDS011;40825;52.270;20.984;2023-03-01T06:40:26;54.90;;;24.50;;
54923;SDS011;40825;52.270;20.984;2023-03-01T06:42:52;54.70;;;24.00;;
54923;SDS011;40825;52.270;20.984;2023-03-01T06:45:18;55.00;;;24.70;;
54923;SDS011;40825;52.270;20.984;2023-03-01T06:47:45;49.20;;;22.50;;
54923;SDS011;40825;52.270;20.984;2023-03-01T06:50:11;49.40;;;22.00;;
54923;SDS011;40825;52.270;20.984;2023-03-01T06:52:38;48.60;;;21.30;;
54923;SDS011;40825;52.270;20.984;2023-03-01T06:55:04;47.90;;;20.80;;
54923;SDS011;40825;52.270;20.984;2023-03-01T06:57:30;48.30;;;21.60;;
54923;SDS011;40825;52.270;20.984;2023-03-01T06:59:56;43.60;;;20.90;;
54923;SDS011;40825;52.270;20.984;2023-03-01T07:02:22;49.70;;;24.10;;
54923;SDS011;40825;52.270;20.984;2023-03-01T07:04:51;48.10;;;22.00;;
54923;SDS011;40825;52.270;20.984;2023-03-01T07:09:43;44.60;;;20.80;;
54923;SDS011;40825;52.270;20.984;2023-03-01T07:12:09;45.10;;;21.10;;
54923;SDS011;40825;52.270;20.984;2023-03-01T07:14:35;39.00;;;20.50;;
54923;SDS011;40825;52.270;20.984;2023-03-01T07:17:00;41.30;;;19.60;;
54923;SDS011;40825;52.270;20.984;2023-03-01T07:19:26;40.60;;;18.90;;
54923;SDS011;40825;52.270;20.984;2023-03-01T07:21:52;39.90;;;20.00;;
54923;SDS011;40825;52.270;20.984;2023-03-01T07:24:17;35.80;;;19.30;;
54923;SDS011;40825;52.270;20.984;2023-03-01T07:26:43;35.60;;;16.90;;
54923;SDS011;40825;52.270;20.984;2023-03-01T07:29:09;41.70;;;19.30;;
54923;SDS011;40825;52.270;20.984;2023-03-01T07:31:35;42.00;;;21.40;;
54923;SDS011;40825;52.270;20.984;2023-03-01T07:34:02;36.90;;;18.10;;
54923;SDS011;40825;52.270;20.984;2023-03-01T07:36:28;37.30;;;17.90;;
54923;SDS011;40825;52.270;20.984;2023-03-01T07:38:53;39.50;;;18.30;;
54923;SDS011;40825;52.270;20.984;2023-03-01T07:41:20;36.70;;;17.10;;
54923;SDS011;40825;52.270;20.984;2023-03-01T07:43:46;38.00;;;19.00;;
54923;SDS011;40825;52.270;20.984;2023-03-01T07:46:12;36.00;;;17.50;;
54923;SDS011;40825;52.270;20.984;2023-03-01T07:48:37;31.20;;;16.60;;
54923;SDS011;40825;52.270;20.984;2023-03-01T07:51:04;41.40;;;19.10;;
54923;SDS011;40825;52.270;20.984;2023-03-01T07:53:31;37.20;;;18.80;;
54923;SDS011;40825;52.270;20.984;2023-03-01T07:56:32;34.20;;;16.80;;
54923;SDS011;40825;52.270;20.984;2023-03-01T07:58:50;35.40;;;16.40;;
54923;SDS011;40825;52.270;20.984;2023-03-01T08:01:17;32.30;;;15.10;;
54923;SDS011;40825;52.270;20.984;2023-03-01T08:03:44;33.00;;;16.10;;
54923;SDS011;40825;52.270;20.984;2023-03-01T08:06:10;29.60;;;16.80;;
54923;SDS011;40825;52.270;20.984;2023-03-01T08:08:37;32.10;;;16.00;;
54923;SDS011;40825;52.270;20.984;2023-03-01T08:11:03;28.40;;;13.90;;
54923;SDS011;40825;52.270;20.984;2023-03-01T08:13:31;27.30;;;13.50;;
54923;SDS011;40825;52.270;20.984;2023-03-01T08:16:02;23.70;;;11.10;;
54923;SDS011;40825;52.270;20.984;2023-03-01T08:18:32;27.10;;;13.00;;
54923;SDS011;40825;52.270;20.984;2023-03-01T08:21:03;27.20;;;12.60;;
54923;SDS011;40825;52.270;20.984;2023-03-01T08:23:30;27.80;;;12.80;;
54923;SDS011;40825;52.270;20.984;2023-03-01T08:26:02;23.70;;;11.00;;
54923;SDS011;40825;52.270;20.984;2023-03-01T08:28:33;24.50;;;13.10;;
54923;SDS011;40825;52.270;20.984;2023-03-01T08:30:59;24.40;;;11.40;;
54923;SDS011;40825;52.270;20.984;2023-03-01T08:33:25;29.10;;;13.00;;
54923;SDS011;40825;52.270;20.984;2023-03-01T08:35:51;26.10;;;12.10;;
54923;SDS011;40825;52.270;20.984;2023-03-01T08:38:16;25.80;;;12.00;;
54923;SDS011;40825;52.270;20.984;2023-03-01T08:40:42;22.80;;;11.00;;
54923;SDS011;40825;52.270;20.984;2023-03-01T08:43:07;21.30;;;11.20;;
54923;SDS011;40825;52.270;20.984;2023-03-01T08:45:33;23.70;;;10.30;;
54923;SDS011;40825;52.270;20.984;2023-03-01T08:47:58;23.20;;;10.50;;
54923;SDS011;40825;52.270;20.984;2023-03-01T08:50:23;22.40;;;10.80;;
54923;SDS011;40825;52.270;20.984;2023-03-01T08:52:49;23.90;;;9.90;;
54923;SDS011;40825;52.270;20.984;2023-03-01T08:55:15;19.70;;;8.70;;
54923;SDS011;40825;52.270;20.984;2023-03-01T08:57:42;22.10;;;10.50;;
54923;SDS011;40825;52.270;20.984;2023-03-01T09:00:08;23.30;;;10.00;;
54923;SDS011;40825;52.270;20.984;2023-03-01T09:02:36;22.60;;;10.00;;
54923;SDS011;40825;52.270;20.984;2023-03-01T09:05:02;21.00;;;10.10;;
54923;SDS011;40825;52.270;20.984;2023-03-01T09:07:27;23.50;;;10.40;;
54923;SDS011;40825;52.270;20.984;2023-03-01T09:09:53;20.90;;;9.10;;
54923;SDS011;40825;52.270;20.984;2023-03-01T09:12:20;19.50;;;9.80;;
54923;SDS011;40825;52.270;20.984;2023-03-01T09:14:46;19.00;;;8.60;;
54923;SDS011;40825;52.270;20.984;2023-03-01T09:17:11;18.40;;;8.40;;
54923;SDS011;40825;52.270;20.984;2023-03-01T09:19:37;21.10;;;9.40;;
54923;SDS011;40825;52.270;20.984;2023-03-01T09:22:03;20.20;;;8.40;;
54923;SDS011;40825;52.270;20.984;2023-03-01T09:24:29;19.60;;;10.10;;
54923;SDS011;40825;52.270;20.984;2023-03-01T09:26:56;20.60;;;8.70;;
54923;SDS011;40825;52.270;20.984;2023-03-01T09:29:22;14.60;;;6.90;;
54923;SDS011;40825;52.270;20.984;2023-03-01T09:31:48;21.00;;;8.60;;
54923;SDS011;40825;52.270;20.984;2023-03-01T09:34:14;23.50;;;9.20;;
54923;SDS011;40825;52.270;20.984;2023-03-01T09:36:48;19.10;;;9.30;;
54923;SDS011;40825;52.270;20.984;2023-03-01T09:39:15;19.30;;;8.70;;
54923;SDS011;40825;52.270;20.984;2023-03-01T09:44:34;19.20;;;8.90;;
54923;SDS011;40825;52.270;20.984;2023-03-01T09:47:09;17.40;;;8.50;;
54923;SDS011;40825;52.270;20.984;2023-03-01T09:49:40;17.00;;;7.60;;
54923;SDS011;40825;52.270;20.984;2023-03-01T09:55:14;20.50;;;8.70;;
54923;SDS011;40825;52.270;20.984;2023-03-01T10:00:29;25.60;;;10.80;;
54923;SDS011;40825;52.270;20.984;2023-03-01T10:03:17;31.60;;;14.30;;
54923;SDS011;40825;52.270;20.984;2023-03-01T10:11:30;29.00;;;15.20;;
54923;SDS011;40825;52.270;20.984;2023-03-01T10:16:40;29.10;;;14.70;;
54923;SDS011;40825;52.270;20.984;2023-03-01T10:22:41;26.90;;;12.30;;
54923;SDS011;40825;52.270;20.984;2023-03-01T10:24:53;24.00;;;12.50;;
54923;SDS011;40825;52.270;20.984;2023-03-01T10:27:26;25.00;;;11.90;;
54923;SDS011;40825;52.270;20.984;2023-03-01T10:30:10;23.40;;;11.80;;
54923;SDS011;40825;52.270;20.984;2023-03-01T10:32:45;24.70;;;10.90;;
54923;SDS011;40825;52.270;20.984;2023-03-01T10:35:18;25.70;;;12.00;;
54923;SDS011;40825;52.270;20.984;2023-03-01T10:40:23;23.20;;;11.70;;
54923;SDS011;40825;52.270;20.984;2023-03-01T10:42:49;26.20;;;13.20;;
54923;SDS011;40825;52.270;20.984;2023-03-01T10:45:23;22.60;;;11.10;;
54923;SDS011;40825;52.270;20.984;2023-03-01T10:48:30;23.60;;;11.10;;
54923;SDS011;40825;52.270;20.984;2023-03-01T10:56:10;25.60;;;14.00;;
54923;SDS011;40825;52.270;20.984;2023-03-01T10:58:40;22.50;;;10.10;;
54923;SDS011;40825;52.270;20.984;2023-03-01T11:03:54;20.10;;;10.50;;
54923;SDS011;40825;52.270;20.984;2023-03-01T11:06:35;23.80;;;10.50;;
54923;SDS011;40825;52.270;20.984;2023-03-01T11:09:17;19.90;;;9.60;;
54923;SDS011;40825;52.270;20.984;2023-03-01T11:11:45;19.50;;;9.50;;
54923;SDS011;40825;52.270;20.984;2023-03-01T11:14:15;21.40;;;9.50;;
54923;SDS011;40825;52.270;20.984;2023-03-01T11:16:44;21.20;;;9.50;;
54923;SDS011;40825;52.270;20.984;2023-03-01T11:24:39;17.10;;;8.80;;
54923;SDS011;40825;52.270;20.984;2023-03-01T11:27:21;18.50;;;9.50;;
54923;SDS011;40825;52.270;20.984;2023-03-01T11:29:59;16.40;;;8.40;;
54923;SDS011;40825;52.270;20.984;2023-03-01T11:32:55;17.70;;;9.00;;
54923;SDS011;40825;52.270;20.984;2023-03-01T11:35:33;22.40;;;10.20;;
54923;SDS011;40825;52.270;20.984;2023-03-01T11:40:35;17.30;;;8.10;;
54923;SDS011;40825;52.270;20.984;2023-03-01T11:51:32;18.00;;;8.90;;
54923;SDS011;40825;52.270;20.984;2023-03-01T11:56:47;15.60;;;7.90;;
54923;SDS011;40825;52.270;20.984;2023-03-01T12:08:05;17.70;;;7.50;;
54923;SDS011;40825;52.270;20.984;2023-03-01T12:10:47;14.10;;;6.50;;
54923;SDS011;40825;52.270;20.984;2023-03-01T12:16:23;15.50;;;6.80;;
54923;SDS011;40825;52.270;20.984;2023-03-01T12:19:08;14.70;;;6.80;;
54923;SDS011;40825;52.270;20.984;2023-03-01T12:21:46;15.40;;;6.80;;
54923;SDS011;40825;52.270;20.984;2023-03-01T12:26:57;14.50;;;5.90;;
54923;SDS011;40825;52.270;20.984;2023-03-01T12:29:47;16.20;;;7.10;;
54923;SDS011;40825;52.270;20.984;2023-03-01T12:32:32;13.40;;;6.90;;
54923;SDS011;40825;52.270;20.984;2023-03-01T12:38:01;14.80;;;7.40;;
54923;SDS011;40825;52.270;20.984;2023-03-01T12:49:31;14.30;;;7.00;;
54923;SDS011;40825;52.270;20.984;2023-03-01T12:52:07;15.50;;;6.90;;
54923;SDS011;40825;52.270;20.984;2023-03-01T12:54:38;14.20;;;6.80;;
54923;SDS011;40825;52.270;20.984;2023-03-01T13:02:36;14.70;;;7.30;;
54923;SDS011;40825;52.270;20.984;2023-03-01T13:05:19;14.90;;;6.90;;
54923;SDS011;40825;52.270;20.984;2023-03-01T13:09:05;15.00;;;6.20;;
54923;SDS011;40825;52.270;20.984;2023-03-01T13:11:20;21.00;;;9.10;;
54923;SDS011;40825;52.270;20.984;2023-03-01T13:13:47;16.70;;;8.50;;
54923;SDS011;40825;52.270;20.984;2023-03-01T13:17:02;13.20;;;7.10;;
54923;SDS011;40825;52.270;20.984;2023-03-01T13:19:20;15.20;;;8.80;;
54923;SDS011;40825;52.270;20.984;2023-03-01T13:21:51;18.40;;;8.50;;
54923;SDS011;40825;52.270;20.984;2023-03-01T13:32:24;16.20;;;7.40;;
54923;SDS011;40825;52.270;20.984;2023-03-01T13:37:22;16.00;;;8.30;;
54923;SDS011;40825;52.270;20.984;2023-03-01T13:39:55;15.80;;;7.70;;
54923;SDS011;40825;52.270;20.984;2023-03-01T13:45:04;13.70;;;7.00;;
54923;SDS011;40825;52.270;20.984;2023-03-01T13:47:41;17.60;;;8.20;;
54923;SDS011;40825;52.270;20.984;2023-03-01T13:50:15;20.10;;;10.20;;
54923;SDS011;40825;52.270;20.984;2023-03-01T13:52:52;21.60;;;9.80;;
54923;SDS011;40825;52.270;20.984;2023-03-01T13:55:24;20.80;;;9.50;;
54923;SDS011;40825;52.270;20.984;2023-03-01T13:58:04;21.30;;;10.30;;
54923;SDS011;40825;52.270;20.984;2023-03-01T14:00:57;20.30;;;10.10;;
54923;SDS011;40825;52.270;20.984;2023-03-01T14:03:28;19.10;;;9.50;;
54923;SDS011;40825;52.270;20.984;2023-03-01T14:13:40;20.40;;;9.50;;
54923;SDS011;40825;52.270;20.984;2023-03-01T14:16:35;20.90;;;9.20;;
54923;SDS011;40825;52.270;20.984;2023-03-01T14:19:18;20.80;;;10.00;;
54923;SDS011;40825;52.270;20.984;2023-03-01T14:21:45;19.40;;;9.40;;
54923;SDS011;40825;52.270;20.984;2023-03-01T14:24:18;15.30;;;7.80;;
54923;SDS011;40825;52.270;20.984;2023-03-01T14:26:46;18.70;;;8.80;;
54923;SDS011;40825;52.270;20.984;2023-03-01T14:29:33;19.80;;;9.20;;
54923;SDS011;40825;52.270;20.984;2023-03-01T14:34:34;17.10;;;8.60;;
54923;SDS011;40825;52.270;20.984;2023-03-01T14:39:52;19.80;;;9.60;;
54923;SDS011;40825;52.270;20.984;2023-03-01T14:42:19;18.60;;;8.40;;
54923;SDS011;40825;52.270;20.984;2023-03-01T14:44:49;19.20;;;10.20;;
54923;SDS011;40825;52.270;20.984;2023-03-01T14:47:33;18.60;;;9.80;;
54923;SDS011;40825;52.270;20.984;2023-03-01T14:52:46;17.00;;;8.10;;
54923;SDS011;40825;52.270;20.984;2023-03-01T14:55:19;19.80;;;9.40;;
54923;SDS011;40825;52.270;20.984;2023-03-01T14:57:56;19.10;;;8.90;;
54923;SDS011;40825;52.270;20.984;2023-03-01T15:00:27;19.60;;;9.20;;
54923;SDS011;40825;52.270;20.984;2023-03-01T15:02:55;17.20;;;9.70;;
54923;SDS011;40825;52.270;20.984;2023-03-01T15:07:56;25.60;;;11.40;;
54923;SDS011;40825;52.270;20.984;2023-03-01T15:10:28;22.50;;;10.80;;
54923;SDS011;40825;52.270;20.984;2023-03-01T15:12:58;21.30;;;10.80;;
54923;SDS011;40825;52.270;20.984;2023-03-01T15:15:39;23.00;;;11.00;;
54923;SDS011;40825;52.270;20.984;2023-03-01T15:18:21;19.10;;;10.30;;
54923;SDS011;40825;52.270;20.984;2023-03-01T15:20:51;21.40;;;9.90;;
54923;SDS011;40825;52.270;20.984;2023-03-01T15:25:46;23.70;;;11.20;;
54923;SDS011;40825;52.270;20.984;2023-03-01T15:28:16;19.40;;;11.30;;
54923;SDS011;40825;52.270;20.984;2023-03-01T15:30:45;20.50;;;9.70;;
54923;SDS011;40825;52.270;20.984;2023-03-01T15:33:28;18.70;;;10.90;;
54923;SDS011;40825;52.270;20.984;2023-03-01T15:35:57;17.20;;;9.00;;
54923;SDS011;40825;52.270;20.984;2023-03-01T15:38:28;18.70;;;8.60;;
54923;SDS011;40825;52.270;20.984;2023-03-01T15:40:58;18.30;;;9.30;;
54923;SDS011;40825;52.270;20.984;2023-03-01T15:43:39;18.70;;;10.30;;
54923;SDS011;40825;52.270;20.984;2023-03-01T15:48:46;16.40;;;8.60;;
54923;SDS011;40825;52.270;20.984;2023-03-01T15:51:17;24.20;;;11.20;;
54923;SDS011;40825;52.270;20.984;2023-03-01T15:53:49;22.00;;;10.60;;
54923;SDS011;40825;52.270;20.984;2023-03-01T15:56:16;22.50;;;11.80;;
54923;SDS011;40825;52.270;20.984;2023-03-01T15:58:42;21.10;;;10.50;;
54923;SDS011;40825;52.270;20.984;2023-03-01T16:01:12;24.20;;;12.20;;
54923;SDS011;40825;52.270;20.984;2023-03-01T16:03:42;22.40;;;12.10;;
54923;SDS011;40825;52.270;20.984;2023-03-01T16:06:08;22.10;;;12.10;;
54923;SDS011;40825;52.270;20.984;2023-03-01T16:08:35;22.00;;;11.40;;
54923;SDS011;40825;52.270;20.984;2023-03-01T16:11:02;27.80;;;12.90;;
54923;SDS011;40825;52.270;20.984;2023-03-01T16:13:31;24.80;;;13.70;;
54923;SDS011;40825;52.270;20.984;2023-03-01T16:15:57;25.70;;;13.60;;
54923;SDS011;40825;52.270;20.984;2023-03-01T16:18:24;18.90;;;11.10;;
54923;SDS011;40825;52.270;20.984;2023-03-01T16:20:49;23.50;;;12.20;;
54923;SDS011;40825;52.270;20.984;2023-03-01T16:23:15;21.30;;;11.30;;
54923;SDS011;40825;52.270;20.984;2023-03-01T16:25:40;26.00;;;11.70;;
54923;SDS011;40825;52.270;20.984;2023-03-01T16:28:06;20.90;;;10.30;;
54923;SDS011;40825;52.270;20.984;2023-03-01T16:30:35;21.30;;;10.30;;
54923;SDS011;40825;52.270;20.984;2023-03-01T16:33:03;22.30;;;10.50;;
54923;SDS011;40825;52.270;20.984;2023-03-01T16:35:31;19.60;;;10.10;;
54923;SDS011;40825;52.270;20.984;2023-03-01T16:37:58;22.10;;;9.60;;
54923;SDS011;40825;52.270;20.984;2023-03-01T16:40:26;22.50;;;9.60;;
54923;SDS011;40825;52.270;20.984;2023-03-01T16:42:53;23.60;;;10.10;;
54923;SDS011;40825;52.270;20.984;2023-03-01T16:45:25;21.30;;;10.20;;
54923;SDS011;40825;52.270;20.984;2023-03-01T16:47:52;21.00;;;9.30;;